createdAt,value
2019-01-15T00:00:26.396Z,3.22
2019-01-15T00:01:26.384Z,3.20
2019-01-15T00:02:26.371Z,3.17
2019-01-15T00:03:26.352Z,3.16
2019-01-15T00:04:26.342Z,3.16
2019-01-15T00:05:26.330Z,3.28
2019-01-15T00:06:26.322Z,3.23
2019-01-15T00:07:26.309Z,3.25
2019-01-15T00:08:26.294Z,3.23
2019-01-15T00:09:26.281Z,3.31
2019-01-15T00:10:26.272Z,3.16
2019-01-15T00:11:26.259Z,3.20
2019-01-15T00:12:26.246Z,3.19
2019-01-15T00:13:26.233Z,3.13
2019-01-15T00:14:26.217Z,3.07
2019-01-15T00:15:26.204Z,3.10
2019-01-15T00:16:26.191Z,2.97
2019-01-15T00:17:26.179Z,3.04
2019-01-15T00:18:26.172Z,3.02
2019-01-15T00:19:26.157Z,2.98
2019-01-15T00:20:26.145Z,3.07
2019-01-15T00:21:26.134Z,3.01
2019-01-15T00:22:26.117Z,3.07
2019-01-15T00:23:26.105Z,2.99
2019-01-15T00:24:26.096Z,3.01
2019-01-15T00:25:26.085Z,3.05
2019-01-15T00:26:26.065Z,2.97
2019-01-15T00:27:26.052Z,2.87
2019-01-15T00:28:26.039Z,2.90
2019-01-15T00:29:26.027Z,2.89
2019-01-15T00:30:26.021Z,2.83
2019-01-15T00:31:26.006Z,3.01
2019-01-15T00:32:25.995Z,2.83
2019-01-15T00:33:25.982Z,2.94
2019-01-15T00:34:25.964Z,2.90
2019-01-15T00:35:25.951Z,2.87
2019-01-15T00:36:25.938Z,2.83
2019-01-15T00:37:25.925Z,2.84
2019-01-15T00:38:25.918Z,2.84
2019-01-15T00:39:25.909Z,2.84
2019-01-15T00:40:25.887Z,2.87
2019-01-15T00:41:25.876Z,2.76
2019-01-15T00:42:25.869Z,2.77
2019-01-15T00:43:27.142Z,2.71
2019-01-15T00:44:25.842Z,2.71
2019-01-15T00:45:25.829Z,2.69
2019-01-15T00:46:25.812Z,2.59
2019-01-15T00:47:25.797Z,2.68
2019-01-15T00:48:25.785Z,2.59
2019-01-15T00:49:25.775Z,2.61
2019-01-15T00:50:25.765Z,2.58
2019-01-15T00:51:25.752Z,2.55
2019-01-15T00:52:25.740Z,2.41
2019-01-15T00:53:25.725Z,2.56
2019-01-15T00:54:25.708Z,2.48
2019-01-15T00:55:25.694Z,2.58
2019-01-15T00:56:25.685Z,2.53
2019-01-15T00:57:25.675Z,2.55
2019-01-15T00:58:25.657Z,2.48
2019-01-15T00:59:25.642Z,2.51
2019-01-15T01:00:25.629Z,2.45
2019-01-15T01:01:25.618Z,2.47
2019-01-15T01:02:25.615Z,2.56
2019-01-15T01:03:25.602Z,2.56
2019-01-15T01:04:25.583Z,2.45
2019-01-15T01:05:25.571Z,2.41
2019-01-15T01:06:25.552Z,2.33
2019-01-15T01:07:25.538Z,2.43
2019-01-15T01:08:25.527Z,2.27
2019-01-15T01:09:25.513Z,2.32
2019-01-15T01:10:25.511Z,2.30
2019-01-15T01:11:25.493Z,2.27
2019-01-15T01:12:25.475Z,2.40
2019-01-15T01:13:25.462Z,2.36
2019-01-15T01:14:25.454Z,2.32
2019-01-15T01:15:25.438Z,2.25
2019-01-15T01:16:25.427Z,2.32
2019-01-15T01:17:25.415Z,2.23
2019-01-15T01:18:25.396Z,2.27
2019-01-15T01:19:25.384Z,2.30
2019-01-15T01:20:25.371Z,2.26
2019-01-15T01:21:25.362Z,2.27
2019-01-15T01:22:25.349Z,2.22
2019-01-15T01:23:25.336Z,2.18
2019-01-15T01:24:25.323Z,2.23
2019-01-15T01:25:25.309Z,2.19
2019-01-15T01:26:25.291Z,2.26
2019-01-15T01:27:25.282Z,2.18
2019-01-15T01:28:25.269Z,2.23
2019-01-15T01:29:25.257Z,2.15
2019-01-15T01:30:25.239Z,2.15
2019-01-15T01:31:25.235Z,2.22
2019-01-15T01:32:25.214Z,2.25
2019-01-15T01:33:25.200Z,2.20
2019-01-15T01:34:25.192Z,2.23
2019-01-15T01:35:25.178Z,2.20
2019-01-15T01:36:25.163Z,2.22
2019-01-15T01:37:25.147Z,2.27
2019-01-15T01:38:25.139Z,2.23
2019-01-15T01:39:25.124Z,2.37
2019-01-15T01:40:25.114Z,2.27
2019-01-15T01:41:25.100Z,2.36
2019-01-15T01:42:29.427Z,2.26
2019-01-15T01:43:25.070Z,2.33
2019-01-15T01:44:25.059Z,2.41
2019-01-15T01:45:25.047Z,2.50
2019-01-15T01:46:25.029Z,2.47
2019-01-15T01:47:25.016Z,2.44
2019-01-15T01:48:25.004Z,2.48
2019-01-15T01:49:24.990Z,2.63
2019-01-15T01:50:24.981Z,2.53
2019-01-15T01:51:24.967Z,2.62
2019-01-15T01:52:24.956Z,2.59
2019-01-15T01:53:24.946Z,2.61
2019-01-15T01:54:24.938Z,2.63
2019-01-15T01:55:24.912Z,2.76
2019-01-15T01:56:24.899Z,2.81
2019-01-15T01:57:24.886Z,2.81
2019-01-15T01:58:24.879Z,2.92
2019-01-15T01:59:24.865Z,2.92
2019-01-15T02:00:24.848Z,3.04
2019-01-15T02:01:24.836Z,3.01
2019-01-15T02:02:24.830Z,3.01
2019-01-15T02:03:24.813Z,3.07
2019-01-15T02:04:24.801Z,3.04
2019-01-15T02:05:24.789Z,3.01
2019-01-15T02:06:24.987Z,3.12
2019-01-15T02:07:24.763Z,3.13
2019-01-15T02:08:24.746Z,3.17
2019-01-15T02:09:24.733Z,3.19
2019-01-15T02:10:24.726Z,3.30
2019-01-15T02:11:24.713Z,3.30
2019-01-15T02:12:24.701Z,3.33
2019-01-15T02:13:24.691Z,3.28
2019-01-15T02:14:24.671Z,3.35
2019-01-15T02:15:24.658Z,3.33
2019-01-15T02:16:24.650Z,3.31
2019-01-15T02:17:24.637Z,3.30
2019-01-15T02:18:24.621Z,3.31
2019-01-15T02:19:24.607Z,3.28
2019-01-15T02:20:24.598Z,3.39
2019-01-15T02:21:24.582Z,3.28
2019-01-15T02:22:24.573Z,3.39
2019-01-15T02:23:24.561Z,3.42
2019-01-15T02:24:24.550Z,3.41
2019-01-15T02:25:24.536Z,3.39
2019-01-15T02:26:24.519Z,3.44
2019-01-15T02:27:24.507Z,3.45
2019-01-15T02:28:24.495Z,3.45
2019-01-15T02:29:24.482Z,3.52
2019-01-15T02:30:24.476Z,3.54
2019-01-15T02:31:24.462Z,3.53
2019-01-15T02:32:24.446Z,3.52
2019-01-15T02:33:24.433Z,3.53
2019-01-15T02:34:24.427Z,3.56
2019-01-15T02:35:24.412Z,3.62
2019-01-15T02:36:24.400Z,3.56
2019-01-15T02:37:24.387Z,3.57
2019-01-15T02:38:24.371Z,3.62
2019-01-15T02:39:24.359Z,3.68
2019-01-15T02:40:24.347Z,3.72
2019-01-15T02:41:24.335Z,3.78
2019-01-15T02:42:24.327Z,3.72
2019-01-15T02:43:24.316Z,3.82
2019-01-15T02:44:24.302Z,3.82
2019-01-15T02:45:24.290Z,3.81
2019-01-15T02:46:24.275Z,3.82
2019-01-15T02:47:24.264Z,3.74
2019-01-15T02:48:24.251Z,3.74
2019-01-15T02:49:24.240Z,3.82
2019-01-15T02:50:24.229Z,3.75
2019-01-15T02:51:24.216Z,3.88
2019-01-15T02:52:24.200Z,3.88
2019-01-15T02:53:24.187Z,3.95
2019-01-15T02:54:24.179Z,3.93
2019-01-15T02:55:24.166Z,3.88
2019-01-15T02:56:24.156Z,3.96
2019-01-15T02:57:24.143Z,3.96
2019-01-15T02:58:24.127Z,4.06
2019-01-15T02:59:24.115Z,4.06
2019-01-15T03:00:24.101Z,4.04
2019-01-15T03:01:24.090Z,4.07
2019-01-15T03:02:24.083Z,4.06
2019-01-15T03:03:24.070Z,4.04
2019-01-15T03:04:24.056Z,4.04
2019-01-15T03:05:24.041Z,4.14
2019-01-15T03:06:24.034Z,4.06
2019-01-15T03:07:24.021Z,4.13
2019-01-15T03:08:24.009Z,4.11
2019-01-15T03:09:23.999Z,4.13
2019-01-15T03:10:23.985Z,4.16
2019-01-15T03:11:23.970Z,4.16
2019-01-15T03:12:23.957Z,4.17
2019-01-15T03:13:23.946Z,4.20
2019-01-15T03:14:23.938Z,4.21
2019-01-15T03:15:23.953Z,4.17
2019-01-15T03:16:23.913Z,4.29
2019-01-15T03:17:23.904Z,4.28
2019-01-15T03:18:23.890Z,4.25
2019-01-15T03:19:23.872Z,4.28
2019-01-15T03:20:23.864Z,4.26
2019-01-15T03:21:23.853Z,4.29
2019-01-15T03:22:23.837Z,4.29
2019-01-15T03:23:23.826Z,4.31
2019-01-15T03:24:23.811Z,4.26
2019-01-15T03:25:23.800Z,4.31
2019-01-15T03:26:23.794Z,4.31
2019-01-15T03:27:23.781Z,4.36
2019-01-15T03:28:23.770Z,4.29
2019-01-15T03:29:23.758Z,4.29
2019-01-15T03:30:23.792Z,4.32
2019-01-15T03:31:23.737Z,4.35
2019-01-15T03:32:23.717Z,4.39
2019-01-15T03:33:23.704Z,4.38
2019-01-15T03:34:23.698Z,4.34
2019-01-15T03:35:23.684Z,4.46
2019-01-15T03:36:23.675Z,4.34
2019-01-15T03:37:23.658Z,4.39
2019-01-15T03:38:23.650Z,4.35
2019-01-15T03:39:23.638Z,4.39
2019-01-15T03:40:23.626Z,4.44
2019-01-15T03:41:23.614Z,4.49
2019-01-15T03:42:23.599Z,4.43
2019-01-15T03:43:23.586Z,4.42
2019-01-15T03:44:23.576Z,4.47
2019-01-15T03:45:23.563Z,4.42
2019-01-15T03:46:23.554Z,4.39
2019-01-15T03:47:23.545Z,4.42
2019-01-15T03:48:23.531Z,4.42
2019-01-15T03:49:23.520Z,4.39
2019-01-15T03:50:23.504Z,4.44
2019-01-15T03:51:23.491Z,4.42
2019-01-15T03:52:23.484Z,4.50
2019-01-15T03:53:23.488Z,4.43
2019-01-15T03:54:23.456Z,4.42
2019-01-15T03:55:23.444Z,4.49
2019-01-15T03:56:23.433Z,4.44
2019-01-15T03:57:23.467Z,4.50
2019-01-15T03:58:23.417Z,4.49
2019-01-15T03:59:23.400Z,4.54
2019-01-15T04:00:23.389Z,4.47
2019-01-15T04:01:23.428Z,4.44
2019-01-15T04:02:23.363Z,4.50
2019-01-15T04:03:23.349Z,4.51
2019-01-15T04:04:23.338Z,4.51
2019-01-15T04:05:23.328Z,4.50
2019-01-15T04:06:23.320Z,4.50
2019-01-15T04:07:23.306Z,4.38
2019-01-15T04:08:23.289Z,4.39
2019-01-15T04:09:23.279Z,4.46
2019-01-15T04:10:23.272Z,4.38
2019-01-15T04:11:23.259Z,4.39
2019-01-15T04:12:23.248Z,4.51
2019-01-15T04:13:23.235Z,4.43
2019-01-15T04:14:23.220Z,4.44
2019-01-15T04:15:23.207Z,4.39
2019-01-15T04:16:23.195Z,4.47
2019-01-15T04:17:23.184Z,4.47
2019-01-15T04:18:23.197Z,4.38
2019-01-15T04:19:23.165Z,4.50
2019-01-15T04:20:23.163Z,4.47
2019-01-15T04:21:23.145Z,4.46
2019-01-15T04:22:23.125Z,4.36
2019-01-15T04:23:23.110Z,4.43
2019-01-15T04:24:23.106Z,4.38
2019-01-15T04:25:23.093Z,4.50
2019-01-15T04:26:23.077Z,4.42
2019-01-15T04:27:23.064Z,4.35
2019-01-15T04:28:23.052Z,4.35
2019-01-15T04:29:23.041Z,4.43
2019-01-15T04:30:23.032Z,4.46
2019-01-15T04:31:23.020Z,4.38
2019-01-15T04:32:23.009Z,4.46
2019-01-15T04:33:22.998Z,4.31
2019-01-15T04:34:22.981Z,4.31
2019-01-15T04:35:22.969Z,4.28
2019-01-15T04:36:22.957Z,4.34
2019-01-15T04:37:22.943Z,4.34
2019-01-15T04:38:22.938Z,4.36
2019-01-15T04:39:22.925Z,4.29
2019-01-15T04:40:22.908Z,4.31
2019-01-15T04:41:22.895Z,4.32
2019-01-15T04:42:22.889Z,4.31
2019-01-15T04:43:22.876Z,4.28
2019-01-15T04:44:22.862Z,4.28
2019-01-15T04:45:22.854Z,4.34
2019-01-15T04:46:22.836Z,4.31
2019-01-15T04:47:22.823Z,4.24
2019-01-15T04:48:22.810Z,4.20
2019-01-15T04:49:22.799Z,4.21
2019-01-15T04:50:22.792Z,4.21
2019-01-15T04:51:22.779Z,4.18
2019-01-15T04:52:22.766Z,4.11
2019-01-15T04:53:22.754Z,4.13
2019-01-15T04:54:22.741Z,4.20
2019-01-15T04:55:22.739Z,4.08
2019-01-15T04:56:22.717Z,4.20
2019-01-15T04:57:22.705Z,4.18
2019-01-15T04:58:22.688Z,4.13
2019-01-15T04:59:22.676Z,4.20
2019-01-15T05:00:22.675Z,4.17
2019-01-15T05:01:22.652Z,4.25
2019-01-15T05:02:22.647Z,4.14
2019-01-15T05:03:22.630Z,4.11
2019-01-15T05:04:22.620Z,4.13
2019-01-15T05:05:22.608Z,4.08
2019-01-15T05:06:22.590Z,4.04
2019-01-15T05:07:22.577Z,4.10
2019-01-15T05:08:22.565Z,4.10
2019-01-15T05:09:22.553Z,4.11
2019-01-15T05:10:22.544Z,4.07
2019-01-15T05:11:22.533Z,4.02
2019-01-15T05:12:22.515Z,4.04
2019-01-15T05:13:27.392Z,4.07
2019-01-15T05:14:22.494Z,4.04
2019-01-15T05:15:22.482Z,4.07
2019-01-15T05:16:22.470Z,4.06
2019-01-15T05:17:22.458Z,4.18
2019-01-15T05:18:22.441Z,4.13
2019-01-15T05:19:22.428Z,4.17
2019-01-15T05:20:22.416Z,4.11
2019-01-15T05:21:22.404Z,4.11
2019-01-15T05:22:22.399Z,4.14
2019-01-15T05:23:22.382Z,4.11
2019-01-15T05:24:22.370Z,4.17
2019-01-15T05:25:22.356Z,4.11
2019-01-15T05:26:22.344Z,4.10
2019-01-15T05:27:22.332Z,4.14
2019-01-15T05:28:22.320Z,4.08
2019-01-15T05:29:22.310Z,4.04
2019-01-15T05:30:22.290Z,4.11
2019-01-15T05:31:22.277Z,4.07
2019-01-15T05:32:22.270Z,4.06
2019-01-15T05:33:22.253Z,4.10
2019-01-15T05:34:22.249Z,4.08
2019-01-15T05:35:22.232Z,4.10
2019-01-15T05:36:22.220Z,4.10
2019-01-15T05:37:22.210Z,4.17
2019-01-15T05:38:22.191Z,4.17
2019-01-15T05:39:22.177Z,4.25
2019-01-15T05:40:22.176Z,4.29
2019-01-15T05:41:22.154Z,4.32
2019-01-15T05:42:22.146Z,4.28
2019-01-15T05:43:22.184Z,4.29
2019-01-15T05:44:22.118Z,4.31
2019-01-15T05:45:22.103Z,4.47
2019-01-15T05:46:22.096Z,4.43
2019-01-15T05:47:22.082Z,4.43
2019-01-15T05:48:22.070Z,4.35
2019-01-15T05:49:22.057Z,4.50
2019-01-15T05:50:22.042Z,4.44
2019-01-15T05:51:22.028Z,4.51
2019-01-15T05:52:22.017Z,4.51
2019-01-15T05:53:22.006Z,4.49
2019-01-15T05:54:21.998Z,4.47
2019-01-15T05:55:21.988Z,4.49
2019-01-15T05:56:21.976Z,4.54
2019-01-15T05:57:21.960Z,4.47
2019-01-15T05:58:21.943Z,4.62
2019-01-15T05:59:21.931Z,4.50
2019-01-15T06:00:21.922Z,4.47
2019-01-15T06:01:21.911Z,4.61
2019-01-15T06:02:21.896Z,4.57
2019-01-15T06:03:21.882Z,4.59
2019-01-15T06:04:21.872Z,4.62
2019-01-15T06:05:21.859Z,4.65
2019-01-15T06:06:21.852Z,4.77
2019-01-15T06:07:21.843Z,4.72
2019-01-15T06:08:21.828Z,4.72
2019-01-15T06:09:21.816Z,4.83
2019-01-15T06:10:21.799Z,4.69
2019-01-15T06:11:21.786Z,4.68
2019-01-15T06:12:21.775Z,4.79
2019-01-15T06:13:21.763Z,4.86
2019-01-15T06:14:21.756Z,4.87
2019-01-15T06:15:21.743Z,4.80
2019-01-15T06:16:21.727Z,4.83
2019-01-15T06:17:21.717Z,4.86
2019-01-15T06:18:21.710Z,4.96
2019-01-15T06:19:21.696Z,4.91
2019-01-15T06:20:21.685Z,4.96
2019-01-15T06:21:21.674Z,4.93
2019-01-15T06:22:21.657Z,4.90
2019-01-15T06:23:21.645Z,4.91
2019-01-15T06:24:21.631Z,4.91
2019-01-15T06:25:21.624Z,4.93
2019-01-15T06:26:21.616Z,4.96
2019-01-15T06:27:21.602Z,4.91
2019-01-15T06:28:21.590Z,4.91
2019-01-15T06:29:21.578Z,4.91
2019-01-15T06:30:21.562Z,4.90
2019-01-15T06:31:21.550Z,4.90
2019-01-15T06:32:21.543Z,4.97
2019-01-15T06:33:21.530Z,4.97
2019-01-15T06:34:21.516Z,4.93
2019-01-15T06:35:21.503Z,5.01
2019-01-15T06:36:21.493Z,4.91
2019-01-15T06:37:21.482Z,5.02
2019-01-15T06:38:21.474Z,4.94
2019-01-15T06:39:21.462Z,4.94
2019-01-15T06:40:21.452Z,4.91
2019-01-15T06:41:21.438Z,4.90
2019-01-15T06:42:21.424Z,4.91
2019-01-15T06:43:21.409Z,4.97
2019-01-15T06:44:21.398Z,4.97
2019-01-15T06:45:21.390Z,5.01
2019-01-15T06:46:21.379Z,5.05
2019-01-15T06:47:21.367Z,5.02
2019-01-15T06:48:21.351Z,5.01
2019-01-15T06:49:21.339Z,5.11
2019-01-15T06:50:21.333Z,5.01
2019-01-15T06:51:21.322Z,5.06
2019-01-15T06:52:21.309Z,5.08
2019-01-15T06:53:21.298Z,4.99
2019-01-15T06:54:21.284Z,5.02
2019-01-15T06:55:21.268Z,5.09
2019-01-15T06:56:21.257Z,5.02
2019-01-15T06:57:21.246Z,5.02
2019-01-15T06:58:21.239Z,5.09
2019-01-15T06:59:21.226Z,5.05
2019-01-15T07:00:21.216Z,5.06
2019-01-15T07:01:21.206Z,5.05
2019-01-15T07:02:21.188Z,5.14
2019-01-15T07:03:21.176Z,5.22
2019-01-15T07:04:21.169Z,5.19
2019-01-15T07:05:21.158Z,5.12
2019-01-15T07:06:21.141Z,5.20
2019-01-15T07:07:21.128Z,5.17
2019-01-15T07:08:21.120Z,5.20
2019-01-15T07:09:21.108Z,5.26
2019-01-15T07:10:21.100Z,5.23
2019-01-15T07:11:21.086Z,5.23
2019-01-15T07:12:21.077Z,5.20
2019-01-15T07:13:21.064Z,5.12
2019-01-15T07:14:21.048Z,5.20
2019-01-15T07:15:21.038Z,5.19
2019-01-15T07:16:21.024Z,5.19
2019-01-15T07:17:21.014Z,5.22
2019-01-15T07:18:21.008Z,5.17
2019-01-15T07:19:20.995Z,5.22
2019-01-15T07:20:20.981Z,5.20
2019-01-15T07:21:20.967Z,5.30
2019-01-15T07:22:20.961Z,5.20
2019-01-15T07:23:20.949Z,5.29
2019-01-15T07:24:20.936Z,5.24
2019-01-15T07:25:20.926Z,5.23
2019-01-15T07:26:20.911Z,5.30
2019-01-15T07:27:20.898Z,5.27
2019-01-15T07:28:20.885Z,5.24
2019-01-15T07:29:20.878Z,5.24
2019-01-15T07:30:20.869Z,5.23
2019-01-15T07:31:20.856Z,5.27
2019-01-15T07:32:20.846Z,5.23
2019-01-15T07:33:20.860Z,5.27
2019-01-15T07:34:20.818Z,5.24
2019-01-15T07:35:20.804Z,5.24
2019-01-15T07:36:20.800Z,5.23
2019-01-15T07:37:20.789Z,5.30
2019-01-15T07:38:20.772Z,5.40
2019-01-15T07:39:20.760Z,5.33
2019-01-15T07:40:20.749Z,5.30
2019-01-15T07:41:20.746Z,5.30
2019-01-15T07:42:20.729Z,5.30
2019-01-15T07:43:20.719Z,5.40
2019-01-15T07:44:20.707Z,5.38
2019-01-15T07:45:20.696Z,5.48
2019-01-15T07:46:20.679Z,5.41
2019-01-15T07:47:20.668Z,5.49
2019-01-15T07:48:20.656Z,5.44
2019-01-15T07:49:20.645Z,5.44
2019-01-15T07:50:20.641Z,5.44
2019-01-15T07:51:20.627Z,5.47
2019-01-15T07:52:21.601Z,5.44
2019-01-15T07:53:20.599Z,5.56
2019-01-15T07:54:20.594Z,5.47
2019-01-15T07:55:20.582Z,5.49
2019-01-15T07:56:20.569Z,5.58
2019-01-15T07:57:20.558Z,5.52
2019-01-15T07:58:20.542Z,5.51
2019-01-15T07:59:20.531Z,5.58
2019-01-15T08:00:20.519Z,5.59
2019-01-15T08:01:20.509Z,5.58
2019-01-15T08:02:20.505Z,5.63
2019-01-15T08:03:20.491Z,5.67
2019-01-15T08:04:20.478Z,5.73
2019-01-15T08:05:20.467Z,5.73
2019-01-15T08:06:20.452Z,5.80
2019-01-15T08:07:20.440Z,5.77
2019-01-15T08:08:20.435Z,5.74
2019-01-15T08:09:20.425Z,5.81
2019-01-15T08:10:20.410Z,5.88
2019-01-15T08:11:20.396Z,5.87
2019-01-15T08:12:20.385Z,5.98
2019-01-15T08:13:20.376Z,6.06
2019-01-15T08:14:20.370Z,6.11
2019-01-15T08:15:20.360Z,6.10
2019-01-15T08:16:20.348Z,6.06
2019-01-15T08:17:20.336Z,6.16
2019-01-15T08:18:20.320Z,6.17
2019-01-15T08:19:20.308Z,6.14
2019-01-15T08:20:20.297Z,6.25
2019-01-15T08:21:20.288Z,6.38
2019-01-15T08:22:20.281Z,6.35
2019-01-15T08:23:20.268Z,6.43
2019-01-15T08:24:20.255Z,6.48
2019-01-15T08:25:20.244Z,6.45
2019-01-15T08:26:20.238Z,6.54
2019-01-15T08:27:20.226Z,6.50
2019-01-15T08:28:20.216Z,6.61
2019-01-15T08:29:20.206Z,6.58
2019-01-15T08:30:20.190Z,6.58
2019-01-15T08:31:20.180Z,6.72
2019-01-15T08:32:20.169Z,6.79
2019-01-15T08:33:20.159Z,6.79
2019-01-15T08:34:20.153Z,6.93
2019-01-15T08:35:20.143Z,6.87
2019-01-15T08:36:20.132Z,6.94
2019-01-15T08:37:20.122Z,6.94
2019-01-15T08:38:20.106Z,6.97
2019-01-15T08:39:20.096Z,6.90
2019-01-15T08:40:20.090Z,6.94
2019-01-15T08:41:20.081Z,6.93
2019-01-15T08:42:20.065Z,6.87
2019-01-15T08:43:20.058Z,6.93
2019-01-15T08:44:20.064Z,6.83
2019-01-15T08:45:20.035Z,6.91
2019-01-15T08:46:20.030Z,6.86
2019-01-15T08:47:20.033Z,6.91
2019-01-15T08:48:20.010Z,6.94
2019-01-15T08:49:20.000Z,6.91
2019-01-15T08:50:19.985Z,6.93
2019-01-15T08:51:19.974Z,6.94
2019-01-15T08:52:19.966Z,6.89
2019-01-15T08:53:19.956Z,6.91
2019-01-15T08:54:19.950Z,6.99
2019-01-15T08:55:19.937Z,7.07
2019-01-15T08:56:19.925Z,7.05
2019-01-15T08:57:19.915Z,7.12
2019-01-15T08:58:19.909Z,7.12
2019-01-15T08:59:19.898Z,7.16
2019-01-15T09:00:19.889Z,7.18
2019-01-15T09:01:19.880Z,7.14
2019-01-15T09:02:19.865Z,7.24
2019-01-15T09:03:19.855Z,7.23
2019-01-15T09:04:19.845Z,7.16
2019-01-15T09:05:19.835Z,7.21
2019-01-15T09:06:19.829Z,7.30
2019-01-15T09:07:19.818Z,7.39
2019-01-15T09:08:19.810Z,7.45
2019-01-15T09:09:19.800Z,7.48
2019-01-15T09:10:19.785Z,7.39
2019-01-15T09:11:19.775Z,7.51
2019-01-15T09:12:19.771Z,7.54
2019-01-15T09:13:19.765Z,7.67
2019-01-15T09:14:26.568Z,7.73
2019-01-15T09:15:19.737Z,7.71
2019-01-15T09:16:19.728Z,7.71
2019-01-15T09:17:19.717Z,7.73
2019-01-15T09:18:19.711Z,7.88
2019-01-15T09:19:19.703Z,7.85
2019-01-15T09:20:19.692Z,7.92
2019-01-15T09:21:19.684Z,7.86
2019-01-15T09:22:19.672Z,8.00
2019-01-15T09:23:19.659Z,8.03
2019-01-15T09:24:19.649Z,8.09
2019-01-15T09:25:19.641Z,8.13
2019-01-15T09:26:19.638Z,8.10
2019-01-15T09:27:19.626Z,8.09
2019-01-15T09:28:19.612Z,8.10
2019-01-15T09:29:19.602Z,8.09
2019-01-15T09:30:19.599Z,8.13
2019-01-15T09:31:19.588Z,8.13
2019-01-15T09:32:19.581Z,8.29
2019-01-15T09:33:19.570Z,8.31
2019-01-15T09:34:19.556Z,8.46
2019-01-15T09:35:19.546Z,8.50
2019-01-15T09:36:19.541Z,8.42
2019-01-15T09:37:19.528Z,8.49
2019-01-15T09:38:19.522Z,8.45
2019-01-15T09:39:19.513Z,8.50
2019-01-15T09:40:19.514Z,8.49
2019-01-15T09:41:19.497Z,8.45
2019-01-15T09:42:19.483Z,8.58
2019-01-15T09:43:19.474Z,8.55
2019-01-15T09:44:19.469Z,8.63
2019-01-15T09:45:19.462Z,8.49
2019-01-15T09:46:19.447Z,8.49
2019-01-15T09:47:19.438Z,8.58
2019-01-15T09:48:19.428Z,8.55
2019-01-15T09:49:19.419Z,8.54
2019-01-15T09:50:19.725Z,8.58
2019-01-15T09:51:19.406Z,8.63
2019-01-15T09:52:20.593Z,8.55
2019-01-15T09:53:19.390Z,8.55
2019-01-15T09:54:19.376Z,8.58
2019-01-15T09:55:19.368Z,8.64
2019-01-15T09:56:19.359Z,8.52
2019-01-15T09:57:19.350Z,8.47
2019-01-15T09:58:19.347Z,8.45
2019-01-15T09:59:19.337Z,8.40
2019-01-15T10:00:19.326Z,8.45
2019-01-15T10:01:19.315Z,8.39
2019-01-15T10:02:19.311Z,8.45
2019-01-15T10:03:19.302Z,8.42
2019-01-15T10:04:19.293Z,8.43
2019-01-15T10:05:19.287Z,8.25
2019-01-15T10:06:19.270Z,8.31
2019-01-15T10:07:19.261Z,8.29
2019-01-15T10:08:19.255Z,8.39
2019-01-15T10:09:19.247Z,8.45
2019-01-15T10:10:19.243Z,8.40
2019-01-15T10:11:19.231Z,8.39
2019-01-15T10:12:19.221Z,8.32
2019-01-15T10:13:19.216Z,8.39
2019-01-15T10:14:19.200Z,8.39
2019-01-15T10:15:19.196Z,8.32
2019-01-15T10:16:19.188Z,8.31
2019-01-15T10:17:19.179Z,8.43
2019-01-15T10:18:19.166Z,8.37
2019-01-15T10:19:19.154Z,8.43
2019-01-15T10:20:19.147Z,8.40
2019-01-15T10:21:19.139Z,8.40
2019-01-15T10:22:19.134Z,8.52
2019-01-15T10:23:19.125Z,8.57
2019-01-15T10:24:19.117Z,8.68
2019-01-15T10:25:19.108Z,8.60
2019-01-15T10:26:19.095Z,8.49
2019-01-15T10:27:19.086Z,8.64
2019-01-15T10:28:19.077Z,8.58
2019-01-15T10:29:19.070Z,8.61
2019-01-15T10:30:19.063Z,8.67
2019-01-15T10:31:19.059Z,8.76
2019-01-15T10:32:19.041Z,8.70
2019-01-15T10:33:19.034Z,8.83
2019-01-15T10:34:19.030Z,8.89
2019-01-15T10:35:19.020Z,8.86
2019-01-15T10:36:19.013Z,8.85
2019-01-15T10:37:19.004Z,8.88
2019-01-15T10:38:18.991Z,8.70
2019-01-15T10:39:18.981Z,8.75
2019-01-15T10:40:18.974Z,8.73
2019-01-15T10:41:18.966Z,8.86
2019-01-15T10:42:18.964Z,8.85
2019-01-15T10:43:18.952Z,8.88
2019-01-15T10:44:18.946Z,8.89
2019-01-15T10:45:18.934Z,8.96
2019-01-15T10:46:21.378Z,9.03
2019-01-15T10:47:18.924Z,8.93
2019-01-15T10:48:18.909Z,8.93
2019-01-15T10:49:18.902Z,9.01
2019-01-15T10:50:18.889Z,8.98
2019-01-15T10:51:18.878Z,9.03
2019-01-15T10:52:18.871Z,9.16
2019-01-15T10:53:18.862Z,9.15
2019-01-15T10:54:18.860Z,9.15
2019-01-15T10:55:18.849Z,9.24
2019-01-15T10:56:18.843Z,9.32
2019-01-15T10:57:18.834Z,9.27
2019-01-15T10:58:18.821Z,9.35
2019-01-15T10:59:18.811Z,9.42
2019-01-15T11:00:18.803Z,9.41
2019-01-15T11:01:18.797Z,9.45
2019-01-15T11:02:18.791Z,9.49
2019-01-15T11:03:18.782Z,9.44
2019-01-15T11:04:18.771Z,9.55
2019-01-15T11:05:18.765Z,9.44
2019-01-15T11:06:18.759Z,9.53
2019-01-15T11:07:18.749Z,9.49
2019-01-15T11:08:18.742Z,9.48
2019-01-15T11:09:18.737Z,9.58
2019-01-15T11:10:18.720Z,9.52
2019-01-15T11:11:18.712Z,9.44
2019-01-15T11:12:18.706Z,9.45
2019-01-15T11:13:18.697Z,9.37
2019-01-15T11:14:18.694Z,9.27
2019-01-15T11:15:18.683Z,9.30
2019-01-15T11:16:18.677Z,9.40
2019-01-15T11:17:18.669Z,9.40
2019-01-15T11:18:18.655Z,9.42
2019-01-15T11:19:18.648Z,9.50
2019-01-15T11:20:18.656Z,9.45
2019-01-15T11:21:18.636Z,9.52
2019-01-15T11:22:18.623Z,9.59
2019-01-15T11:23:18.615Z,9.56
2019-01-15T11:24:18.606Z,9.53
2019-01-15T11:25:18.598Z,9.56
2019-01-15T11:26:18.595Z,9.53
2019-01-15T11:27:18.587Z,9.65
2019-01-15T11:28:18.577Z,9.62
2019-01-15T11:29:18.569Z,9.71
2019-01-15T11:30:18.557Z,9.65
2019-01-15T11:31:18.549Z,9.65
2019-01-15T11:32:18.542Z,9.65
2019-01-15T11:33:18.533Z,9.70
2019-01-15T11:34:18.530Z,9.78
2019-01-15T11:35:18.521Z,9.75
2019-01-15T11:36:18.510Z,9.67
2019-01-15T11:37:18.502Z,9.67
2019-01-15T11:38:18.498Z,9.75
2019-01-15T11:39:18.489Z,9.68
2019-01-15T11:40:18.483Z,9.67
2019-01-15T11:41:18.473Z,9.65
2019-01-15T11:42:18.465Z,9.68
2019-01-15T11:43:18.452Z,9.67
2019-01-15T11:44:18.443Z,9.67
2019-01-15T11:45:18.437Z,9.62
2019-01-15T11:46:18.432Z,9.70
2019-01-15T11:47:18.423Z,9.67
2019-01-15T11:48:18.416Z,9.70
2019-01-15T11:49:18.408Z,9.65
2019-01-15T11:50:18.397Z,9.70
2019-01-15T11:51:18.387Z,9.59
2019-01-15T11:52:18.385Z,9.67
2019-01-15T11:53:18.376Z,9.70
2019-01-15T11:54:18.364Z,9.63
2019-01-15T11:55:18.356Z,9.68
2019-01-15T11:56:18.346Z,9.62
2019-01-15T11:57:18.339Z,9.68
2019-01-15T11:58:18.335Z,9.65
2019-01-15T11:59:18.326Z,9.74
2019-01-15T12:00:18.317Z,9.78
2019-01-15T12:01:18.309Z,9.75
2019-01-15T12:02:22.214Z,9.73
2019-01-15T12:03:18.289Z,9.92
2019-01-15T12:04:18.282Z,9.92
2019-01-15T12:05:18.273Z,9.81
2019-01-15T12:06:18.272Z,9.78
2019-01-15T12:07:18.262Z,9.75
2019-01-15T12:08:18.249Z,9.67
2019-01-15T12:09:18.245Z,9.74
2019-01-15T12:10:18.239Z,9.85
2019-01-15T12:11:18.230Z,9.75
2019-01-15T12:12:18.222Z,9.74
2019-01-15T12:13:18.213Z,9.75
2019-01-15T12:14:18.202Z,9.73
2019-01-15T12:15:18.192Z,9.75
2019-01-15T12:16:18.184Z,9.78
2019-01-15T12:17:18.179Z,9.75
2019-01-15T12:18:18.175Z,9.83
2019-01-15T12:19:18.165Z,9.75
2019-01-15T12:20:18.157Z,9.73
2019-01-15T12:21:18.152Z,9.75
2019-01-15T12:22:18.136Z,9.73
2019-01-15T12:23:18.128Z,9.70
2019-01-15T12:24:18.124Z,9.67
2019-01-15T12:25:18.119Z,9.56
2019-01-15T12:26:18.105Z,9.56
2019-01-15T12:27:18.098Z,9.59
2019-01-15T12:28:18.089Z,9.59
2019-01-15T12:29:18.080Z,9.53
2019-01-15T12:30:18.078Z,9.52
2019-01-15T12:31:18.070Z,9.50
2019-01-15T12:32:18.063Z,9.45
2019-01-15T12:33:18.054Z,9.49
2019-01-15T12:34:18.042Z,9.48
2019-01-15T12:35:18.033Z,9.45
2019-01-15T12:36:18.024Z,9.50
2019-01-15T12:37:18.015Z,9.50
2019-01-15T12:38:18.012Z,9.59
2019-01-15T12:39:18.004Z,9.59
2019-01-15T12:40:17.992Z,9.62
2019-01-15T12:41:17.983Z,9.58
2019-01-15T12:42:17.979Z,9.59
2019-01-15T12:43:17.971Z,9.63
2019-01-15T12:44:17.963Z,9.67
2019-01-15T12:45:18.365Z,9.60
2019-01-15T12:46:17.943Z,9.68
2019-01-15T12:47:17.933Z,9.67
2019-01-15T12:48:17.925Z,9.68
2019-01-15T12:49:17.917Z,9.70
2019-01-15T12:50:17.913Z,9.77
2019-01-15T12:51:17.905Z,9.71
2019-01-15T12:52:17.897Z,9.95
2019-01-15T12:53:17.888Z,9.99
2019-01-15T12:54:17.876Z,9.99
2019-01-15T12:55:17.868Z,10.06
2019-01-15T12:56:17.864Z,9.96
2019-01-15T12:57:19.243Z,9.91
2019-01-15T12:58:17.846Z,9.96
2019-01-15T12:59:17.834Z,10.20
2019-01-15T13:00:17.829Z,10.28
2019-01-15T13:01:17.820Z,10.34
2019-01-15T13:02:17.817Z,10.36
2019-01-15T13:03:17.808Z,10.38
2019-01-15T13:04:17.802Z,10.26
2019-01-15T13:05:17.793Z,10.36
2019-01-15T13:06:17.780Z,10.16
2019-01-15T13:07:17.773Z,10.11
2019-01-15T13:08:17.769Z,10.11
2019-01-15T13:09:17.756Z,10.01
2019-01-15T13:10:17.761Z,10.06
2019-01-15T13:11:17.745Z,9.92
2019-01-15T13:12:17.738Z,9.98
2019-01-15T13:13:17.731Z,9.99
2019-01-15T13:14:17.724Z,9.96
2019-01-15T13:15:24.528Z,10.09
2019-01-15T13:16:17.710Z,10.13
2019-01-15T13:17:17.704Z,10.17